DABC

Mohamed Boudiaf International Airport

Constantine, Algeria
TAF DABC 190500Z 1906/2006 20008KT 2000 BR BKN003 FEW015TCU TEMPO 1906/1908 0060 FG BKN001 BECMG 1908/1910 02010KT 6000 BECMG 1910/1912 9999
Issued Valid From Valid To
Oct-19 @ 05:00 UTC
(4 hours ago)
Oct-19 @ 06:00 UTC
(3 hours ago)
Oct-20 @ 06:00 UTC
(in 21 hours)
Expired Click to View Oct-19 @ 06:00 to Oct-19 @ 08:00
TAF DABC 190500Z 1906/2006 20008KT 2000 BR BKN003 FEW015TCU
Wind Visibility Clouds Conditions
200° at 8 knots 1,996 meters
  • Broken at 300' AGL
  • Few at 1,500' AGL
  • Mist
Expired Click to View Oct-19 @ 06:00 to Oct-19 @ 08:00
TEMPO 1906/1908 0060 FG BKN001
Visibility Clouds Conditions
64 meters
  • Broken at 100' AGL
  • Fog
Becoming Oct-19 @ 08:00 to Oct-19 @ 10:00
BECMG 1908/1910 02010KT 6000
Wind Visibility Clouds Conditions
20° at 10 knots 6,003 meters
  • Broken at 300' AGL
  • Few at 1,500' AGL
  • Mist
Becoming Oct-19 @ 10:00 to Oct-20 @ 06:00
BECMG 1910/1912 9999
Wind Visibility Clouds Conditions
20° at 10 knots 10,000+ meters
  • Broken at 300' AGL
  • Few at 1,500' AGL
  • Mist
TAF DABC 190500Z 1906/2006 20008KT 2000 BR BKN003 FEW015TCU TEMPO 1906/1908 0060 FG BKN001 BECMG 1908/1910 02010KT 6000 BECMG 1910/1912 9999
Issued Oct-19 @ 05:00 UTC
(4 hours ago)
Valid From Oct-19 @ 06:00 UTC
(3 hours ago)
Valid To Oct-20 @ 06:00 UTC
(in 21 hours)
Oct-19 @ 06:00 - Oct-19 @ 08:00
Wind Visibility
200° at 8 knots 1,996 meters
Clouds
  • Broken at 300' AGL
  • Few at 1,500' AGL
Conditions
  • Mist
Oct-19 @ 06:00 - Oct-19 @ 08:00
Clouds
  • Broken at 100' AGL
Conditions
  • Fog
Becoming Oct-19 @ 08:00 - Oct-19 @ 10:00
Wind Visibility
20° at 10 knots 6,003 meters
Clouds
  • Broken at 300' AGL
  • Few at 1,500' AGL
Conditions
  • Mist
Becoming Oct-19 @ 10:00 - Oct-20 @ 06:00
Wind Visibility
20° at 10 knots 10,000+ meters
Clouds
  • Broken at 300' AGL
  • Few at 1,500' AGL
Conditions
  • Mist